Mulino, OR

4:25 PM PDT on April 21, 2015 (GMT -0700)
Bucknercreek rd,lower area | | Change Station
CLOSE
Current Station
Personal Weather Station
Location: Beavercreek, OR
Elevation: 774 ft
Nearby Weather Stations

Elev 774 ft 45.23 °N, 122.51 °W | Updated 13 seconds ago

Overcast
Overcast
59.4 °F
Feels Like 59.4 °F
N
3.1
Wind Variable Wind from NE
Gusts 4.5 mph

Today
High -- | Low -- °F
--% Chance of Precip.
Yesterday
High -- | Low -- °F
Precip. -- in
6:15 AM 8:03 PM
Waxing Crescent, 13% visible
Pressure 30.01 in
Visibility 10.0 miles
Clouds Overcast 4200 ft
Dew Point 54 °F
Humidity 81%
Rainfall 0.00 in
Snow Depth Not available.
UV 2 out of 12
Pollen 10.30 out of 12
Air Quality Not available.
Flu Activity Regional
METAR KUAO 212253Z AUTO 33010G18KT 10SM OVC042 14/08 A3001 RMK AO2 SLP163 T01390078

More Conditions Fewer Conditions

Pressure 30.01 in
Visibility 10.0 miles
Clouds Overcast 4200 ft
Dew Point 54 °F
Humidity 81%
Rainfall 0.00 in
Snow Depth Not available.
UV 2 out of 12
Pollen 10.30 out of 12
Air Quality Not available.
Flu Activity Regional
METAR KUAO 212253Z AUTO 33010G18KT 10SM OVC042 14/08 A3001 RMK AO2 SLP163 T01390078

More Conditions Fewer Conditions

10-Day Weather Forecast

Almanac

Astronomy

Apr. 21, 2015 Rise Set
Actual Time
Civil Twilight
Nautical Twilight
Astronomical Twilight
Moon
Length of Visible Light
Length of Day
Tomorrow will be .
, % of the Moon is Illuminated

Today's Extremes

State Highs State Lows

Community

WunderPhotos

Upload Photos

1,815,579 photos uploaded!

WunderBlogs® & News

Nearby

Air Quality

  Air Quality AQ Index Pollutant
Not available.

Snow Depth

Station Depth Elevation

Earthquake Activity

City Distance Mag. Time & Date
Minimum magnitude displayed is 2.5.

Coastal Water Temperatures

Place Temperature

Stations

Nearby Weather Stations

Station Location Temp. Windchill Dew Point Humidity Wind Precip. Elev Updated Type